Time,TemperatureF,DewpointF,PressureIn,WindDirection,WindDirectionDegrees,WindSpeedMPH,WindSpeedGustMPH,Humidity,HourlyPrecipIn,Conditions,Clouds,dailyrainin,SoftwareType,DateUTC
2013-05-04 10:18:00,52.2,21.7,30.39,NE,55,6.7,11.1,30,0.00,,---,0.00,VWS V14.01,2013-05-04 14:18:00,
2013-05-04 10:19:00,52.5,22.0,30.39,ESE,123,8.7,8.7,30,0.00,,---,0.00,VWS V14.01,2013-05-04 14:19:00,
2013-05-04 10:21:00,52.5,22.0,30.39,NNE,29,5.1,9.5,30,0.00,,---,0.00,VWS V14.01,2013-05-04 14:21:00,
2013-05-04 10:23:00,52.7,22.2,30.39,NNE,15,4.6,8.7,30,0.00,,---,0.00,VWS V14.01,2013-05-04 14:23:00,
2013-05-04 10:29:00,52.2,20.9,30.39,East,89,4.6,12.1,29,0.00,,---,0.00,VWS V14.01,2013-05-04 14:29:00,
2013-05-04 10:35:00,52.5,22.0,30.39,NNE,15,4.6,9.3,30,0.00,,---,0.00,VWS V14.01,2013-05-04 14:35:00,
2013-05-04 10:40:00,52.5,21.2,30.39,North,357,10.5,11.6,29,0.00,,---,0.00,VWS V14.01,2013-05-04 14:40:00,
2013-05-04 10:41:00,52.3,21.0,30.39,NE,55,5.7,10.5,29,0.00,,---,0.00,VWS V14.01,2013-05-04 14:41:00,
2013-05-04 10:47:00,52.7,21.4,30.39,ENE,61,6.2,8.2,29,0.00,,---,0.00,VWS V14.01,2013-05-04 14:47:00,
2013-05-04 10:53:00,53.2,21.8,30.39,North,357,9.3,9.3,29,0.00,,---,0.00,VWS V14.01,2013-05-04 14:53:00,
2013-05-04 10:58:00,53.6,21.3,30.39,NE,37,8.7,10.5,28,0.00,,---,0.00,VWS V14.01,2013-05-04 14:58:00,
2013-05-04 11:04:00,54.0,21.6,30.39,NNE,28,7.2,11.6,28,0.00,,---,0.00,VWS V14.01,2013-05-04 15:04:00,
2013-05-04 11:10:00,54.5,22.1,30.39,SE,144,3.6,12.6,28,0.00,,---,0.00,VWS V14.01,2013-05-04 15:10:00,
2013-05-04 11:16:00,54.7,22.2,30.39,NE,43,7.2,7.2,28,0.00,,---,0.00,VWS V14.01,2013-05-04 15:16:00,
2013-05-04 11:22:00,55.6,23.0,30.39,North,1,5.7,8.7,28,0.00,,---,0.00,VWS V14.01,2013-05-04 15:22:00,
2013-05-04 11:27:00,55.6,20.3,30.39,NNE,19,3.6,9.3,25,0.00,,---,0.00,VWS V14.01,2013-05-04 15:27:00,
2013-05-04 11:32:00,55.4,20.2,30.39,NNE,14,6.7,11.1,25,0.00,,---,0.00,VWS V14.01,2013-05-04 15:32:00,
2013-05-04 11:38:00,54.7,20.5,30.39,NNW,335,10.0,10.0,26,0.00,,---,0.00,VWS V14.01,2013-05-04 15:38:00,
2013-05-04 11:43:00,54.7,22.2,30.39,North,350,5.7,12.6,28,0.00,,---,0.00,VWS V14.01,2013-05-04 15:43:00,
2013-05-04 11:49:00,54.7,20.5,30.39,SE,130,9.5,12.1,26,0.00,,---,0.00,VWS V14.01,2013-05-04 15:49:00,
2013-05-04 11:54:00,55.0,20.8,30.39,NE,39,9.5,12.1,26,0.00,,---,0.00,VWS V14.01,2013-05-04 15:54:00,
2013-05-04 12:00:00,54.9,22.4,30.39,WNW,301,7.2,8.7,28,0.00,,---,0.00,VWS V14.01,2013-05-04 16:00:00,
2013-05-04 12:06:00,54.7,20.5,30.39,NNE,30,6.7,9.5,26,0.00,,---,0.00,VWS V14.01,2013-05-04 16:06:00,
2013-05-04 12:11:00,55.6,20.3,30.39,North,10,2.6,12.1,25,0.00,,---,0.00,VWS V14.01,2013-05-04 16:11:00,
2013-05-04 12:17:00,55.8,20.5,30.39,ENE,71,4.6,8.7,25,0.00,,---,0.00,VWS V14.01,2013-05-04 16:17:00,
2013-05-04 12:22:00,55.9,20.6,30.39,NE,56,9.3,10.0,25,0.00,,---,0.00,VWS V14.01,2013-05-04 16:22:00,
2013-05-04 12:28:00,55.2,21.0,30.39,NE,43,5.7,9.3,26,0.00,,---,0.00,VWS V14.01,2013-05-04 16:28:00,
2013-05-04 12:33:00,54.5,20.3,30.39,NNE,26,12.1,12.1,26,0.00,,---,0.00,VWS V14.01,2013-05-04 16:33:00,
2013-05-04 12:39:00,54.3,20.2,30.39,NNE,25,6.2,6.7,26,0.00,,---,0.00,VWS V14.01,2013-05-04 16:39:00,
2013-05-04 12:45:00,54.5,22.1,30.39,NE,47,6.2,10.0,28,0.00,,---,0.00,VWS V14.01,2013-05-04 16:45:00,
2013-05-04 12:50:00,54.7,20.5,30.39,SW,222,7.2,9.3,26,0.00,,---,0.00,VWS V14.01,2013-05-04 16:50:00,
2013-05-04 12:56:00,54.0,17.0,30.39,North,6,4.6,12.1,23,0.00,,---,0.00,VWS V14.01,2013-05-04 16:56:00,
2013-05-04 13:02:00,53.8,19.7,30.39,NE,51,4.1,14.7,26,0.00,,---,0.00,VWS V14.01,2013-05-04 17:02:00,
2013-05-04 13:07:00,54.5,20.3,30.39,NNE,14,3.6,7.2,26,0.00,,---,0.00,VWS V14.01,2013-05-04 17:07:00,
2013-05-04 13:12:00,55.0,20.8,30.39,North,1,6.7,7.2,26,0.00,,---,0.00,VWS V14.01,2013-05-04 17:12:00,
2013-05-04 13:17:00,54.3,17.3,30.39,NE,52,6.2,10.0,23,0.00,,---,0.00,VWS V14.01,2013-05-04 17:17:00,
2013-05-04 13:23:00,54.9,17.8,30.39,NNE,23,10.5,12.1,23,0.00,,---,0.00,VWS V14.01,2013-05-04 17:23:00,
2013-05-04 13:29:00,54.0,17.0,30.39,NE,38,7.2,11.6,23,0.00,,---,0.00,VWS V14.01,2013-05-04 17:29:00,
2013-05-04 13:35:00,54.5,20.3,30.39,NNE,31,8.2,8.7,26,0.00,,---,0.00,VWS V14.01,2013-05-04 17:35:00,
2013-05-04 13:41:00,54.1,20.0,30.39,North,353,4.1,11.6,26,0.00,,---,0.00,VWS V14.01,2013-05-04 17:41:00,
2013-05-04 13:46:00,54.5,20.3,30.39,NE,46,8.7,14.7,26,0.00,,---,0.00,VWS V14.01,2013-05-04 17:46:00,
2013-05-04 13:52:00,54.7,20.5,30.39,NNE,12,9.3,9.5,26,0.00,,---,0.00,VWS V14.01,2013-05-04 17:52:00,
2013-05-04 13:57:00,54.5,20.3,30.39,ENE,64,9.5,11.6,26,0.00,,---,0.00,VWS V14.01,2013-05-04 17:57:00,
2013-05-04 14:03:00,54.1,20.0,30.39,East,99,4.1,9.3,26,0.00,,---,0.00,VWS V14.01,2013-05-04 18:03:00,
2013-05-04 14:09:00,54.9,20.6,30.39,NE,45,9.3,9.5,26,0.00,,---,0.00,VWS V14.01,2013-05-04 18:09:00,
2013-05-04 14:14:00,54.7,20.5,30.39,North,357,6.2,10.0,26,0.00,,---,0.00,VWS V14.01,2013-05-04 18:14:00,
2013-05-04 14:20:00,55.0,17.9,30.39,North,4,7.2,11.6,23,0.00,,---,0.00,VWS V14.01,2013-05-04 18:20:00,
2013-05-04 14:26:00,54.7,20.5,30.36,NNE,23,7.2,14.1,26,0.00,,---,0.00,VWS V14.01,2013-05-04 18:26:00,
2013-05-04 14:31:00,54.3,17.3,30.36,ENE,72,9.3,12.6,23,0.00,,---,0.00,VWS V14.01,2013-05-04 18:31:00,
2013-05-04 14:37:00,54.1,20.0,30.36,ENE,61,0.0,0.0,26,0.00,,---,0.00,VWS V14.01,2013-05-04 18:37:00,
2013-05-04 14:42:00,54.0,19.9,30.39,North,357,0.0,0.0,26,0.00,,---,0.00,VWS V14.01,2013-05-04 18:42:00,
2013-05-04 14:48:00,54.3,20.2,30.39,North,8,0.0,0.0,26,0.00,,---,0.00,VWS V14.01,2013-05-04 18:48:00,
2013-05-04 14:53:00,55.2,18.1,30.39,ENE,73,0.0,0.0,23,0.00,,---,0.00,VWS V14.01,2013-05-04 18:53:00,
2013-05-04 14:59:00,54.5,17.5,30.36,NNE,23,0.0,0.0,23,0.00,,---,0.00,VWS V14.01,2013-05-04 18:59:00,
2013-05-04 15:05:00,54.3,17.3,30.36,NNE,30,0.0,0.0,23,0.00,,---,0.00,VWS V14.01,2013-05-04 19:05:00,
2013-05-04 15:10:00,55.2,18.1,30.36,North,1,0.0,0.0,23,0.00,,---,0.00,VWS V14.01,2013-05-04 19:10:00,
2013-05-04 15:16:00,54.9,17.8,30.36,ENE,61,0.0,0.0,23,0.00,,---,0.00,VWS V14.01,2013-05-04 19:16:00,
2013-05-04 15:22:00,54.9,17.8,30.36,ENE,75,0.0,0.0,23,0.00,,---,0.00,VWS V14.01,2013-05-04 19:22:00,
2013-05-04 15:27:00,54.3,17.3,30.36,NE,46,0.0,0.0,23,0.00,,---,0.00,VWS V14.01,2013-05-04 19:27:00,
2013-05-04 15:32:00,54.9,20.6,30.36,NNE,17,0.0,0.0,26,0.00,,---,0.00,VWS V14.01,2013-05-04 19:32:00,
2013-05-04 15:38:00,54.5,20.3,30.36,NE,49,0.0,0.0,26,0.00,,---,0.00,VWS V14.01,2013-05-04 19:38:00,
2013-05-04 15:44:00,54.3,17.3,30.36,NNE,22,0.0,0.0,23,0.00,,---,0.00,VWS V14.01,2013-05-04 19:44:00,
2013-05-04 15:49:00,55.0,20.8,30.36,East,93,0.0,0.0,26,0.00,,---,0.00,VWS V14.01,2013-05-04 19:49:00,
2013-05-04 15:55:00,55.4,18.2,30.36,East,80,0.0,0.0,23,0.00,,---,0.00,VWS V14.01,2013-05-04 19:55:00,
2013-05-04 16:01:00,55.2,18.1,30.36,East,101,0.0,0.0,23,0.00,,---,0.00,VWS V14.01,2013-05-04 20:01:00,
2013-05-04 16:06:00,54.1,20.0,30.36,ESE,115,0.0,0.0,26,0.00,,---,0.00,VWS V14.01,2013-05-04 20:06:00,
2013-05-04 16:12:00,53.1,19.1,30.36,NNE,19,9.5,10.0,26,0.00,,---,0.00,VWS V14.01,2013-05-04 20:12:00,
2013-05-04 16:17:00,53.1,19.1,30.36,ESE,115,6.2,9.5,26,0.00,,---,0.00,VWS V14.01,2013-05-04 20:17:00,
2013-05-04 16:23:00,53.2,19.3,30.36,North,9,4.6,9.3,26,0.00,,---,0.00,VWS V14.01,2013-05-04 20:23:00,
2013-05-04 16:28:00,53.6,19.6,30.36,NNE,29,14.7,14.7,26,0.00,,---,0.00,VWS V14.01,2013-05-04 20:28:00,
2013-05-04 16:34:00,52.9,21.5,30.36,ESE,102,9.3,10.0,29,0.00,,---,0.00,VWS V14.01,2013-05-04 20:34:00,
2013-05-04 16:40:00,52.5,21.2,30.36,NNE,30,6.2,12.6,29,0.00,,---,0.00,VWS V14.01,2013-05-04 20:40:00,
2013-05-04 16:45:00,52.3,21.0,30.36,NE,48,6.7,7.2,29,0.00,,---,0.00,VWS V14.01,2013-05-04 20:45:00,
2013-05-04 16:51:00,52.2,20.9,30.36,NNE,21,0.0,11.1,29,0.00,,---,0.00,VWS V14.01,2013-05-04 20:51:00,
2013-05-04 16:57:00,51.8,20.6,30.36,North,10,6.7,8.2,29,0.00,,---,0.00,VWS V14.01,2013-05-04 20:57:00,
2013-05-04 17:02:00,52.2,20.9,30.36,NE,47,8.7,8.7,29,0.00,,---,0.00,VWS V14.01,2013-05-04 21:02:00,
2013-05-04 17:07:00,52.2,20.9,30.36,North,11,7.2,7.2,29,0.00,,---,0.00,VWS V14.01,2013-05-04 21:07:00,
2013-05-04 17:12:00,52.2,20.9,30.36,NNE,30,0.0,0.0,29,0.00,,---,0.00,VWS V14.01,2013-05-04 21:12:00,
2013-05-04 17:18:00,52.0,21.5,30.36,NE,52,0.0,0.0,30,0.00,,---,0.00,VWS V14.01,2013-05-04 21:18:00,
2013-05-04 17:23:00,51.3,20.9,30.36,North,4,0.0,0.0,30,0.00,,---,0.00,VWS V14.01,2013-05-04 21:23:00,
2013-05-04 17:29:00,51.4,21.8,30.36,North,0,0.0,0.0,31,0.00,,---,0.00,VWS V14.01,2013-05-04 21:29:00,
2013-05-04 17:34:00,51.4,21.8,30.36,NNE,13,0.0,0.0,31,0.00,,---,0.00,VWS V14.01,2013-05-04 21:34:00,
2013-05-04 17:40:00,51.1,20.8,30.36,North,357,0.0,0.0,30,0.00,,---,0.00,VWS V14.01,2013-05-04 21:40:00,
2013-05-04 17:46:00,50.9,20.6,30.36,North,0,0.0,0.0,30,0.00,,---,0.00,VWS V14.01,2013-05-04 21:46:00,
2013-05-04 17:51:00,50.5,20.3,30.36,ENE,58,0.0,0.0,30,0.00,,---,0.00,VWS V14.01,2013-05-04 21:51:00,
2013-05-04 17:57:00,50.4,20.9,30.36,North,349,0.0,0.0,31,0.00,,---,0.00,VWS V14.01,2013-05-04 21:57:00,
2013-05-04 18:02:00,50.5,21.8,30.36,NE,54,0.0,0.0,32,0.00,,---,0.00,VWS V14.01,2013-05-04 22:02:00,
2013-05-04 18:08:00,50.2,21.5,30.36,SSE,152,0.0,0.0,32,0.00,,---,0.00,VWS V14.01,2013-05-04 22:08:00,
2013-05-04 18:14:00,49.8,21.2,30.36,NNE,33,0.0,0.0,32,0.00,,---,0.00,VWS V14.01,2013-05-04 22:14:00,
2013-05-04 18:19:00,49.6,21.0,30.36,North,10,0.0,0.0,32,0.00,,---,0.00,VWS V14.01,2013-05-04 22:19:00,
2013-05-04 18:25:00,49.5,21.6,30.36,ENE,61,0.0,0.0,33,0.00,,---,0.00,VWS V14.01,2013-05-04 22:25:00,
2013-05-04 18:30:00,49.5,21.6,30.36,NW,311,0.0,0.0,33,0.00,,---,0.00,VWS V14.01,2013-05-04 22:30:00,
2013-05-04 18:36:00,49.3,22.1,30.36,NNE,17,0.0,0.0,34,0.00,,---,0.00,VWS V14.01,2013-05-04 22:36:00,
2013-05-04 18:42:00,49.1,22.6,30.36,NNE,17,0.0,0.0,35,0.00,,---,0.00,VWS V14.01,2013-05-04 22:42:00,
2013-05-04 18:47:00,48.9,23.2,30.36,North,1,0.0,0.0,36,0.00,,---,0.00,VWS V14.01,2013-05-04 22:47:00,
2013-05-04 18:53:00,48.7,24.3,30.36,NNE,24,0.0,0.0,38,0.00,,---,0.00,VWS V14.01,2013-05-04 22:53:00,
2013-05-04 18:59:00,48.6,24.1,30.33,North,357,0.0,0.0,38,0.00,,---,0.00,VWS V14.01,2013-05-04 22:59:00,
2013-05-04 19:04:00,48.6,24.7,30.33,NE,45,0.0,0.0,39,0.00,,---,0.00,VWS V14.01,2013-05-04 23:04:00,
2013-05-04 19:10:00,48.0,24.9,30.33,North,357,0.0,0.0,40,0.00,,---,0.00,VWS V14.01,2013-05-04 23:10:00,
2013-05-04 19:15:00,47.8,24.7,30.33,North,3,0.0,0.0,40,0.00,,---,0.00,VWS V14.01,2013-05-04 23:15:00,
2013-05-04 19:21:00,47.7,25.1,30.33,NNE,33,0.0,0.0,41,0.00,,---,0.00,VWS V14.01,2013-05-04 23:21:00,
2013-05-04 19:27:00,47.5,25.0,30.36,NNE,15,0.0,0.0,41,0.00,,---,0.00,VWS V14.01,2013-05-04 23:27:00,
2013-05-04 19:32:00,47.3,25.4,30.36,NE,55,0.0,0.0,42,0.00,,---,0.00,VWS V14.01,2013-05-04 23:32:00,
2013-05-04 19:38:00,47.1,25.2,30.36,North,3,0.0,0.0,42,0.00,,---,0.00,VWS V14.01,2013-05-04 23:38:00,
2013-05-04 19:43:00,47.1,25.8,30.33,NNW,345,0.0,0.0,43,0.00,,---,0.00,VWS V14.01,2013-05-04 23:43:00,
2013-05-04 19:49:00,46.8,25.5,30.33,North,357,0.0,0.0,43,0.00,,---,0.00,VWS V14.01,2013-05-04 23:49:00,
2013-05-04 19:54:00,46.8,26.0,30.33,NE,56,0.0,0.0,44,0.00,,---,0.00,VWS V14.01,2013-05-04 23:54:00,
2013-05-04 20:00:00,46.8,26.0,30.33,NNE,31,0.0,0.0,44,0.00,,---,0.00,VWS V14.01,2013-05-05 00:00:00,
2013-05-04 20:06:00,46.6,25.9,30.33,North,1,0.0,0.0,44,0.00,,---,0.00,VWS V14.01,2013-05-05 00:06:00,
2013-05-04 20:11:00,46.6,26.4,30.33,NNW,343,0.0,0.0,45,0.00,,---,0.00,VWS V14.01,2013-05-05 00:11:00,
2013-05-04 20:17:00,46.6,26.4,30.33,NNE,12,0.0,0.0,45,0.00,,---,0.00,VWS V14.01,2013-05-05 00:17:00,
2013-05-04 20:23:00,46.6,26.9,30.33,ENE,62,0.0,0.0,46,0.00,,---,0.00,VWS V14.01,2013-05-05 00:23:00,
2013-05-04 20:28:00,46.4,26.8,30.36,NE,56,0.0,0.0,46,0.00,,---,0.00,VWS V14.01,2013-05-05 00:28:00,
2013-05-04 20:34:00,46.4,26.8,30.36,NNE,17,0.0,0.0,46,0.00,,---,0.00,VWS V14.01,2013-05-05 00:34:00,
2013-05-04 20:39:00,46.4,26.2,30.36,NE,39,0.0,0.0,45,0.00,,---,0.00,VWS V14.01,2013-05-05 00:39:00,
2013-05-04 20:45:00,46.2,26.6,30.36,ESE,111,0.0,0.0,46,0.00,,---,0.00,VWS V14.01,2013-05-05 00:45:00,
2013-05-04 20:50:00,46.4,26.2,30.36,NNW,342,0.0,0.0,45,0.00,,---,0.00,VWS V14.01,2013-05-05 00:50:00,
2013-05-04 20:56:00,46.4,26.2,30.36,NNE,28,0.0,0.0,45,0.00,,---,0.00,VWS V14.01,2013-05-05 00:56:00,
2013-05-04 21:02:00,46.4,26.8,30.36,NE,50,0.0,0.0,46,0.00,,---,0.00,VWS V14.01,2013-05-05 01:02:00,
2013-05-04 21:07:00,46.4,26.2,30.36,North,357,0.0,0.0,45,0.00,,---,0.00,VWS V14.01,2013-05-05 01:07:00,
2013-05-04 21:13:00,46.4,26.2,30.36,NNE,13,0.0,0.0,45,0.00,,---,0.00,VWS V14.01,2013-05-05 01:13:00,
2013-05-04 21:19:00,46.4,26.2,30.36,ENE,68,0.0,0.0,45,0.00,,---,0.00,VWS V14.01,2013-05-05 01:19:00,
2013-05-04 21:24:00,46.4,26.2,30.36,ENE,59,0.0,0.0,45,0.00,,---,0.00,VWS V14.01,2013-05-05 01:24:00,
2013-05-04 21:30:00,46.4,26.2,30.36,SW,230,0.0,0.0,45,0.00,,---,0.00,VWS V14.01,2013-05-05 01:30:00,
2013-05-04 21:35:00,46.4,26.2,30.36,ENE,66,0.0,0.0,45,0.00,,---,0.00,VWS V14.01,2013-05-05 01:35:00,
2013-05-04 21:41:00,46.4,26.8,30.36,ENE,78,0.0,0.0,46,0.00,,---,0.00,VWS V14.01,2013-05-05 01:41:00,
2013-05-04 21:47:00,46.4,26.8,30.36,North,357,0.0,0.0,46,0.00,,---,0.00,VWS V14.01,2013-05-05 01:47:00,
2013-05-04 21:52:00,46.4,27.3,30.36,NNW,348,0.0,0.0,47,0.00,,---,0.00,VWS V14.01,2013-05-05 01:52:00,
2013-05-04 21:58:00,46.4,27.3,30.36,NE,47,0.0,0.0,47,0.00,,---,0.00,VWS V14.01,2013-05-05 01:58:00,
2013-05-04 22:03:00,46.2,27.6,30.36,NNE,20,0.0,0.0,48,0.00,,---,0.00,VWS V14.01,2013-05-05 02:03:00,
2013-05-04 22:09:00,46.2,27.6,30.36,NNE,17,0.0,0.0,48,0.00,,---,0.00,VWS V14.01,2013-05-05 02:09:00,
2013-05-04 22:14:00,46.2,28.1,30.36,NNE,17,0.0,0.0,49,0.00,,---,0.00,VWS V14.01,2013-05-05 02:14:00,
2013-05-04 22:20:00,46.2,28.1,30.36,NE,56,0.0,0.0,49,0.00,,---,0.00,VWS V14.01,2013-05-05 02:20:00,
2013-05-04 22:25:00,46.2,28.1,30.36,NNE,17,0.0,0.0,49,0.00,,---,0.00,VWS V14.01,2013-05-05 02:25:00,
2013-05-04 22:30:00,46.2,28.6,30.36,North,357,0.0,0.0,50,0.00,,---,0.00,VWS V14.01,2013-05-05 02:30:00,
2013-05-04 22:35:00,46.4,28.8,30.36,NE,44,0.0,0.0,50,0.00,,---,0.00,VWS V14.01,2013-05-05 02:35:00,
2013-05-04 22:41:00,46.4,28.8,30.36,NNE,33,0.0,0.0,50,0.00,,---,0.00,VWS V14.01,2013-05-05 02:41:00,
2013-05-04 22:47:00,46.4,28.8,30.36,North,10,0.0,0.0,50,0.00,,---,0.00,VWS V14.01,2013-05-05 02:47:00,
2013-05-04 22:52:00,46.4,28.3,30.36,North,10,0.0,0.0,49,0.00,,---,0.00,VWS V14.01,2013-05-05 02:52:00,
2013-05-04 22:58:00,46.4,28.3,30.36,NE,47,0.0,0.0,49,0.00,,---,0.00,VWS V14.01,2013-05-05 02:58:00,
2013-05-04 23:03:00,46.4,28.8,30.36,North,0,0.0,0.0,50,0.00,,---,0.00,VWS V14.01,2013-05-05 03:03:00,
2013-05-04 23:09:00,46.4,28.8,30.36,ENE,66,0.0,0.0,50,0.00,,---,0.00,VWS V14.01,2013-05-05 03:09:00,
2013-05-04 23:15:00,46.4,28.8,30.36,North,357,0.0,0.0,50,0.00,,---,0.00,VWS V14.01,2013-05-05 03:15:00,
2013-05-04 23:20:00,46.2,29.1,30.36,NNE,21,0.0,0.0,51,0.00,,---,0.00,VWS V14.01,2013-05-05 03:20:00,
2013-05-04 23:26:00,46.4,29.3,30.36,NE,38,0.0,0.0,51,0.00,,---,0.00,VWS V14.01,2013-05-05 03:26:00,
2013-05-04 23:32:00,46.4,29.3,30.36,North,11,0.0,0.0,51,0.00,,---,0.00,VWS V14.01,2013-05-05 03:32:00,
2013-05-04 23:37:00,46.2,29.6,30.36,North,2,0.0,0.0,52,0.00,,---,0.00,VWS V14.01,2013-05-05 03:37:00,
2013-05-04 23:43:00,46.4,29.8,30.33,NE,39,0.0,0.0,52,0.00,,---,0.00,VWS V14.01,2013-05-05 03:43:00,
2013-05-04 23:48:00,46.2,29.6,30.33,NNE,26,0.0,0.0,52,0.00,,---,0.00,VWS V14.01,2013-05-05 03:48:00,
2013-05-04 23:53:00,46.2,29.6,30.33,NNE,15,0.0,0.0,52,0.00,,---,0.00,VWS V14.01,2013-05-05 03:53:00,
2013-05-04 23:58:00,46.2,30.0,30.36,NNE,15,0.0,0.0,53,0.00,,---,0.00,VWS V14.01,2013-05-05 03:58:00,